Pasadena 2N

39° 08' 31"N, 76° 30' 27"W, Elevation 43 ft.
Eastern Time

Hourly observations for the last 72 hours

Date Time Temperature (F) Humi-
dity

(%)
Wind
(mph)
Pressure Rain (in) Sun
(W/m2)
ET
(in)
Air Dew 6 Hour 1 Hr 3 Hr 6 Hr Day
Alt
(in)
Sea
Level

(mb)
Max Min
21 23:00 68.5 67.0 95 Calm 30.01 1016.2 0.00 0 0.105
21 22:00 69.5 67.7 94 Calm 30.00 1016.1 0.00 0 0.105
21 21:00 70.6 68.2 92 Calm 30.00 1016.0 0.00 0 0.105
21 20:00 72.5 68.7 88.3 72.5 88 Calm 29.99 1015.7 0.00 0 0.105
21 19:00 75.6 69.4 81 Calm 29.98 1015.4 0.00 9 0.104
21 18:00 80.7 70.0 70 E 0 G 3 29.98 1015.3 0.00 39 0.101
21 17:00 88.2 70.0 55 NE 1 G 4 29.98 1015.1 0.00 362 0.088
21 16:00 87.6 68.9 54 NE 1 G 5 29.97 1015.0 0.00 529 0.073
21 15:00 86.5 69.0 56 ENE 3 G 5 29.99 1015.4 0.00 737 0.056
21 14:00 85.3 69.4 85.4 63.6 59 S 1 G 4 29.99 1015.7 0.00 761 0.037
21 13:00 81.8 68.9 65 NE 3 G 6 30.01 1016.4 0.00 647 0.025
21 12:00 83.2 68.4 61 ENE 2 G 5 30.02 1016.7 0.00 496 0.006
21 11:00 79.2 68.2 69 NNW 1 G 4 30.02 1016.7 0.00 617 0.003
21 10:00 75.7 66.8 74 NW 1 G 5 30.04 1017.2 0.00 47 0.001
21 09:00 70.3 66.3 87 W 1 G 3 30.03 1017.0 0.00 40 0.000
21 08:00 63.7 62.8 64.1 62.2 97 Calm 30.03 1017.0 0.00 44 0.000
21 07:00 62.2 61.3 97 Calm 30.02 1016.6 0.00 0 0.000
21 06:00 62.5 61.6 97 Calm 30.00 1015.8 0.00 0 0.000
21 05:00 62.4 61.2 96 Calm 29.98 1015.1 0.00 0 0.000
21 04:00 62.9 61.7 96 Calm 29.96 1014.6 0.00 0 0.000
21 03:00 63.4 61.9 95 Calm 29.97 1014.8 0.00 0 0.000
21 02:00 64.1 62.3 72.6 64.0 94 Calm 29.97 1014.9 0.00 0 0.000
21 01:00 64.9 62.5 92 Calm 29.96 1014.7 0.00 0 0.000
21 00:00 65.3 62.6 91 Calm 29.95 1014.4 0.00 0 0.120
20 23:00 65.9 62.9 90 Calm 29.95 1014.1 0.00 0 0.120
20 22:00 66.8 63.1 88 Calm 29.94 1013.9 0.00 0 0.119
20 21:00 68.9 63.5 83 Calm 29.92 1013.3 0.00 0 0.118
20 20:00 72.6 64.2 88.5 72.6 75 Calm 29.92 1013.1 0.00 0 0.118
20 19:00 79.1 62.1 56 W 1 G 6 29.90 1012.5 0.00 5 0.116
20 18:00 82.0 62.1 51 NNW 1 G 5 29.89 1012.4 0.00 28 0.112
20 17:00 87.9 64.6 46 WNW 1 G 8 29.89 1012.1 0.00 378 0.098
20 16:00 87.5 66.0 49 E 1 G 9 29.87 1011.7 0.00 545 0.081
20 15:00 88.3 68.5 52 N 3 G 7 29.88 1012.0 0.00 668 0.061
20 14:00 86.3 68.3 86.6 72.7 55 NE 2 G 6 29.90 1012.4 0.00 745 0.039
20 13:00 82.5 69.1 64 NNE 2 G 5 29.91 1013.0 0.00 782 0.029
20 12:00 78.0 66.6 68 NNW 2 G 10 29.92 1013.3 0.00 255 0.022
20 11:00 77.0 67.3 72 NW 1 G 11 29.93 1013.6 0.00 251 0.016
20 10:00 77.3 66.8 70 NE 4 G 8 29.93 1013.7 0.00 195 0.012
20 09:00 74.8 66.0 74 WSW 2 G 7 29.93 1013.6 0.00 134 0.008
20 08:00 72.7 65.5 74.0 71.6 78 WNW 3 G 11 29.90 1012.7 0.00 67 0.007
20 07:00 72.2 65.0 78 NW 1 G 5 29.90 1012.5 0.00 0 0.006
20 06:00 73.6 65.2 75 NNW 2 G 9 29.88 1011.9 0.00 0 0.005
20 05:00 73.5 65.5 76 W 1 G 4 29.87 1011.5 0.00 0 0.004
20 04:00 73.7 65.7 76 WNW 3 G 8 29.87 1011.4 0.00 0 0.003
20 03:00 73.7 65.7 76 NW 2 G 8 29.86 1011.4 0.00 0 0.002
20 02:00 74.0 66.7 77.9 73.5 78 NNW 1 G 6 29.88 1011.8 0.00 0 0.001
20 01:00 74.0 66.7 78 NNE 1 G 7 29.88 1011.9 0.00 0 0.000
20 00:00 74.1 66.8 78 W 1 G 8 29.87 1011.7 0.00 0 0.098
19 23:00 75.3 67.6 77 N 2 G 7 29.88 1011.9 0.00 0 0.097
19 22:00 76.1 68.0 76 NNW 1 G 7 29.88 1012.0 0.00 0 0.096
19 21:00 76.7 68.2 75 NNW 2 G 10 29.87 1011.6 0.00 0 0.094
19 20:00 77.8 68.5 82.4 77.8 73 NNW 3 G 7 29.86 1011.3 0.00 0 0.093
19 19:00 79.4 68.4 69 WNW 2 G 9 29.86 1011.2 0.00 18 0.091
19 18:00 80.7 68.3 66 N 3 G 9 29.86 1011.2 0.00 56 0.086
19 17:00 81.7 69.7 67 NNW 2 G 5 29.86 1011.2 0.00 251 0.078
19 16:00 80.7 69.2 68 NNE 2 G 11 29.86 1011.3 0.00 260 0.071
19 15:00 80.9 68.9 67 NE 3 G 10 29.89 1012.1 0.00 364 0.057
19 14:00 78.5 69.1 80.3 70.2 73 N 2 G 11 29.91 1013.0 0.00 165 0.047
19 13:00 80.3 69.6 70 WNW 5 G 10 29.93 1013.7 0.00 663 0.030
19 12:00 79.0 69.6 73 NW 4 G 11 29.95 1014.1 0.00 742 0.016
19 11:00 75.8 69.6 81 N 4 G 12 29.96 1014.6 0.00 313 0.010
19 10:00 72.4 68.0 86 E 2 G 6 29.97 1014.9 0.00 179 0.007
19 09:00 71.3 67.6 88 N 5 G 10 29.96 1014.5 0.00 105 0.005
19 08:00 70.2 66.8 70.8 69.1 89 N 3 G 8 29.96 1014.5 0.00 32 0.004
19 07:00 69.9 66.8 90 NW 3 G 9 29.97 1014.8 0.00 0 0.004
19 06:00 69.7 66.6 90 NW 2 G 8 29.96 1014.7 0.00 0 0.004
19 05:00 69.7 67.0 91 N 2 G 4 29.96 1014.7 0.00 0 0.004
19 04:00 69.6 66.5 90 ENE 2 G 7 29.96 1014.7 0.00 0 0.003
19 03:00 70.7 67.3 89 NE 3 G 11 29.98 1015.3 0.00 0 0.002
19 02:00 70.5 67.1 72.9 70.2 89 N 3 G 8 29.99 1015.6 0.00 0 0.001
19 01:00 70.9 67.2 88 ESE 1 G 5 30.00 1015.8 0.00 0 0.000
19 00:00 70.3 66.6 88 E 2 G 8 30.01 1016.3 0.07 0 0.053

Data generated by WxSolution Version 1.9.0.2, Build 2016.11.28.